Terminal Aerodrome Forecast
Issued by NWS Jacksonville, FL

Home | Current Version | Previous Version | Text Only | Print | Product List | Glossary On
Versions: 1 2 3 4 5 6 7 8 9 10 11 12 13 14 15 16 17 18
666
FTUS42 KJAX 270520
TAFSSI
TAF
KSSI 270520Z 2706/2806 07007KT P6SM VCSH BKN025
      TEMPO 2706/2710 5SM -SHRA SCT025 BKN060
     FM271300 02006KT P6SM SCT025
     FM271600 11009KT P6SM SCT050=

USA.gov is the U.S. government's official web portal to all federal, state and local government web resources and services.